createdAt,value
2022-12-14T00:01:38.801Z,31.13
2022-12-14T00:04:05.999Z,30.35
2022-12-14T00:06:35.997Z,34.05
2022-12-14T00:09:05.128Z,35.17
2022-12-14T00:11:33.441Z,42.47
2022-12-14T00:14:01.648Z,27.65
2022-12-14T00:16:30.105Z,32.60
2022-12-14T00:18:58.098Z,25.15
2022-12-14T00:21:27.838Z,25.70
2022-12-14T00:23:55.525Z,28.52
2022-12-14T00:26:24.358Z,27.83
2022-12-14T00:28:53.031Z,30.30
2022-12-14T00:31:21.161Z,29.80
2022-12-14T00:33:48.824Z,35.20
2022-12-14T00:36:16.079Z,31.08
2022-12-14T00:38:43.507Z,32.03
2022-12-14T00:41:11.503Z,27.75
2022-12-14T00:43:38.767Z,28.10
2022-12-14T00:46:08.874Z,26.40
2022-12-14T00:48:36.494Z,32.70
2022-12-14T00:51:03.751Z,32.75
2022-12-14T00:53:31.227Z,33.10
2022-12-14T00:55:58.444Z,34.58
2022-12-14T00:58:27.829Z,27.30
2022-12-14T01:01:02.069Z,28.83
2022-12-14T01:03:29.697Z,26.63
2022-12-14T01:05:59.573Z,28.90
2022-12-14T01:08:26.902Z,34.38
2022-12-14T01:10:54.106Z,27.92
2022-12-14T01:13:21.324Z,30.52
2022-12-14T01:15:48.678Z,33.70
2022-12-14T01:18:16.088Z,25.85
2022-12-14T01:20:43.313Z,27.05
2022-12-14T01:23:10.694Z,27.70
2022-12-14T01:25:37.935Z,32.92
2022-12-14T01:28:05.281Z,23.50
2022-12-14T01:30:32.530Z,27.13
2022-12-14T01:33:00.787Z,26.10
2022-12-14T01:35:28.017Z,28.73
2022-12-14T01:37:55.312Z,28.25
2022-12-14T01:40:22.549Z,24.35
2022-12-14T01:42:49.798Z,25.15
2022-12-14T01:45:21.638Z,21.65
2022-12-14T01:47:55.405Z,28.85
2022-12-14T01:50:25.619Z,22.63
2022-12-14T01:52:55.035Z,24.35
2022-12-14T01:55:22.254Z,25.17
2022-12-14T01:57:51.625Z,31.60
2022-12-14T02:00:19.011Z,31.10
2022-12-14T02:02:51.849Z,23.85
2022-12-14T02:05:20.628Z,26.00
2022-12-14T02:07:49.202Z,28.33
2022-12-14T02:10:16.748Z,24.08
2022-12-14T02:12:46.233Z,28.02
2022-12-14T02:15:13.937Z,29.00
2022-12-14T02:17:43.673Z,28.80
2022-12-14T02:20:11.391Z,27.23
2022-12-14T02:23:01.650Z,28.00
2022-12-14T02:25:28.846Z,27.85
2022-12-14T02:28:17.160Z,30.00
2022-12-14T02:30:49.059Z,24.65
2022-12-14T02:33:22.126Z,24.52
2022-12-14T02:35:49.355Z,28.58
2022-12-14T02:38:16.594Z,26.42
2022-12-14T02:40:47.962Z,25.27
2022-12-14T02:43:22.429Z,25.00
2022-12-14T02:45:54.699Z,28.92
2022-12-14T02:48:33.798Z,19.30
2022-12-14T02:51:24.942Z,29.00
2022-12-14T02:54:15.203Z,24.63
2022-12-14T02:56:52.401Z,26.83
2022-12-14T02:59:25.809Z,34.42
2022-12-14T03:01:53.392Z,30.60
2022-12-14T03:04:20.772Z,24.92
2022-12-14T03:06:58.037Z,25.10
2022-12-14T03:09:26.386Z,22.63
2022-12-14T03:11:56.332Z,25.52
2022-12-14T03:14:28.266Z,26.10
2022-12-14T03:16:57.360Z,25.33
2022-12-14T03:19:26.709Z,25.77
2022-12-14T03:22:02.203Z,22.50
2022-12-14T03:24:33.167Z,23.42
2022-12-14T03:27:04.925Z,23.08
2022-12-14T03:29:39.112Z,32.28
2022-12-14T03:32:18.892Z,22.50
2022-12-14T03:35:04.413Z,30.90
2022-12-14T03:37:42.676Z,26.55
2022-12-14T03:40:18.410Z,26.23
2022-12-14T03:43:01.834Z,27.23
2022-12-14T03:45:39.686Z,29.15
2022-12-14T03:48:27.371Z,25.75
2022-12-14T03:51:02.153Z,27.30
2022-12-14T03:53:38.586Z,28.75
2022-12-14T03:56:08.089Z,27.63
2022-12-14T03:58:38.448Z,28.83
2022-12-14T04:01:11.881Z,26.73
2022-12-14T04:03:39.101Z,26.75
2022-12-14T04:06:28.753Z,30.58
2022-12-14T04:09:12.443Z,26.23
2022-12-14T04:12:02.762Z,23.75
2022-12-14T04:14:51.054Z,29.35
2022-12-14T04:17:41.818Z,28.00
2022-12-14T04:20:09.161Z,26.08
2022-12-14T04:22:41.526Z,31.58
2022-12-14T04:25:33.413Z,28.85
2022-12-14T04:28:00.583Z,26.60
2022-12-14T04:30:30.147Z,26.38
2022-12-14T04:33:00.293Z,24.83
2022-12-14T04:35:30.433Z,31.92
2022-12-14T04:38:00.232Z,31.55
2022-12-14T04:40:30.299Z,26.90
2022-12-14T04:43:02.778Z,29.85
2022-12-14T04:48:15.724Z,33.85
2022-12-14T04:50:46.177Z,30.00
2022-12-14T04:53:18.057Z,28.40
2022-12-14T04:56:01.734Z,33.53
2022-12-14T04:58:30.344Z,31.00
2022-12-14T05:01:00.288Z,32.53
2022-12-14T05:03:50.638Z,34.58
2022-12-14T05:06:38.106Z,35.45
2022-12-14T05:09:08.402Z,36.80
2022-12-14T05:11:54.724Z,30.88
2022-12-14T05:14:25.415Z,31.67
2022-12-14T05:16:52.729Z,33.80
2022-12-14T05:19:26.217Z,23.30
2022-12-14T05:21:54.174Z,34.33
2022-12-14T05:24:21.371Z,36.10
2022-12-14T05:26:48.558Z,36.83
2022-12-14T05:29:17.006Z,31.10
2022-12-14T05:31:49.189Z,34.47
2022-12-14T05:36:43.879Z,30.27
2022-12-14T05:39:11.058Z,29.30
2022-12-14T05:41:38.247Z,31.67
2022-12-14T05:44:05.571Z,36.22
2022-12-14T05:46:32.794Z,34.75
2022-12-14T05:48:59.947Z,32.00
2022-12-14T05:51:27.185Z,34.42
2022-12-14T05:53:54.386Z,31.85
2022-12-14T05:56:21.758Z,32.22
2022-12-14T05:58:51.988Z,35.55
2022-12-14T06:01:19.930Z,36.53
2022-12-14T06:03:47.746Z,35.40
2022-12-14T06:06:15.271Z,34.25
2022-12-14T06:08:46.305Z,35.05
2022-12-14T06:11:17.747Z,28.60
2022-12-14T06:13:45.197Z,32.67
2022-12-14T06:16:14.517Z,36.80
2022-12-14T06:18:52.200Z,37.40
2022-12-14T06:21:20.544Z,55.42
2022-12-14T06:23:47.808Z,35.83
2022-12-14T06:26:15.855Z,37.00
2022-12-14T06:28:43.294Z,32.85
2022-12-14T06:31:18.096Z,32.78
2022-12-14T06:33:45.747Z,30.00
2022-12-14T06:36:24.034Z,28.23
2022-12-14T06:38:51.897Z,31.55
2022-12-14T06:41:19.367Z,31.67
2022-12-14T06:43:49.457Z,32.50
2022-12-14T06:46:17.565Z,28.52
2022-12-14T06:48:45.457Z,34.05
2022-12-14T06:51:12.650Z,33.78
2022-12-14T06:53:39.847Z,29.83
2022-12-14T06:56:14.461Z,37.15
2022-12-14T06:58:42.382Z,31.85
2022-12-14T07:01:10.723Z,34.90
2022-12-14T07:03:38.245Z,33.67
2022-12-14T07:06:05.551Z,31.27
2022-12-14T07:08:34.564Z,26.00
2022-12-14T07:11:02.780Z,29.88
2022-12-14T07:13:30.487Z,32.60
2022-12-14T07:15:58.519Z,34.33
2022-12-14T07:18:26.372Z,33.55
2022-12-14T07:21:07.133Z,34.67
2022-12-14T07:23:37.367Z,27.85
2022-12-14T07:26:06.039Z,28.98
2022-12-14T07:28:33.946Z,31.27
2022-12-14T07:31:01.636Z,37.47
2022-12-14T07:33:29.709Z,29.48
2022-12-14T07:36:07.630Z,29.70
2022-12-14T07:38:35.835Z,29.45
2022-12-14T07:41:03.979Z,26.15
2022-12-14T07:43:31.339Z,30.75
2022-12-14T07:46:02.666Z,30.13
2022-12-14T07:48:30.405Z,27.38
2022-12-14T07:51:04.789Z,29.52
2022-12-14T07:53:32.310Z,28.00
2022-12-14T07:56:04.752Z,29.83
2022-12-14T08:01:08.442Z,29.52
2022-12-14T08:03:35.769Z,28.40
2022-12-14T08:06:06.926Z,26.35
2022-12-14T08:08:34.386Z,25.27
2022-12-14T08:11:02.083Z,31.02
2022-12-14T08:13:29.739Z,29.67
2022-12-14T08:15:57.471Z,33.92
2022-12-14T08:18:24.728Z,28.10
2022-12-14T08:20:53.330Z,26.77
2022-12-14T08:23:21.410Z,32.60
2022-12-14T08:25:53.387Z,26.67
2022-12-14T08:28:20.603Z,23.42
2022-12-14T08:30:47.985Z,26.85
2022-12-14T08:33:15.183Z,30.85
2022-12-14T08:35:42.472Z,29.27
2022-12-14T08:38:10.158Z,27.73
2022-12-14T08:40:39.235Z,32.85
2022-12-14T08:43:07.730Z,30.98
2022-12-14T08:45:35.776Z,32.55
2022-12-14T08:48:03.419Z,29.83
2022-12-14T08:50:30.619Z,33.70
2022-12-14T08:52:57.785Z,29.70
2022-12-14T08:55:29.267Z,27.98
2022-12-14T09:00:25.458Z,30.42
2022-12-14T09:02:52.821Z,24.73
2022-12-14T09:05:20.110Z,21.73
2022-12-14T09:07:47.359Z,19.77
2022-12-14T09:10:15.271Z,25.33
2022-12-14T09:12:42.535Z,27.08
2022-12-14T09:15:10.023Z,25.88
2022-12-14T09:17:37.322Z,28.75
2022-12-14T09:20:05.108Z,23.75
2022-12-14T09:22:32.437Z,27.27
2022-12-14T09:24:59.708Z,24.45
2022-12-14T09:27:27.330Z,25.17
2022-12-14T09:29:54.538Z,24.42
2022-12-14T09:32:21.706Z,26.77
2022-12-14T09:34:48.921Z,19.58
2022-12-14T09:37:16.197Z,20.45
2022-12-14T09:39:43.361Z,20.90
2022-12-14T09:42:13.318Z,21.50
2022-12-14T09:44:47.990Z,20.20
2022-12-14T09:47:23.093Z,20.13
2022-12-14T09:49:52.653Z,18.30
2022-12-14T09:52:21.281Z,18.38
2022-12-14T09:54:50.087Z,22.58
2022-12-14T09:57:25.433Z,18.92
2022-12-14T09:59:56.005Z,17.67
2022-12-14T10:02:31.746Z,21.23
2022-12-14T10:05:02.990Z,17.70
2022-12-14T10:07:49.053Z,17.90
2022-12-14T10:10:29.235Z,18.10
2022-12-14T10:12:57.055Z,19.45
2022-12-14T10:15:34.494Z,21.65
2022-12-14T10:18:17.574Z,21.42
2022-12-14T10:20:57.846Z,16.33
2022-12-14T10:23:26.547Z,20.83
2022-12-14T10:25:56.465Z,18.27
2022-12-14T10:28:33.096Z,19.08
2022-12-14T10:31:02.542Z,19.55
2022-12-14T10:33:31.085Z,21.52
2022-12-14T10:36:30.851Z,23.60
2022-12-14T10:38:59.768Z,17.90
2022-12-14T10:41:49.444Z,23.40
2022-12-14T10:44:31.417Z,20.63
2022-12-14T10:47:18.282Z,23.15
2022-12-14T10:49:45.517Z,22.55
2022-12-14T10:52:17.137Z,23.08
2022-12-14T10:54:47.193Z,19.42
2022-12-14T10:57:18.521Z,18.63
2022-12-14T11:00:03.634Z,19.90
2022-12-14T11:02:36.429Z,18.42
2022-12-14T11:05:12.638Z,21.17
2022-12-14T11:07:42.977Z,20.73
2022-12-14T11:10:28.968Z,24.45
2022-12-14T11:12:56.153Z,20.30
2022-12-14T11:15:34.505Z,24.17
2022-12-14T11:18:21.917Z,21.88
2022-12-14T11:20:52.060Z,20.70
2022-12-14T11:23:25.979Z,27.10
2022-12-14T11:26:00.557Z,26.00
2022-12-14T11:28:36.939Z,23.00
2022-12-14T11:31:04.565Z,19.80
2022-12-14T11:33:52.037Z,19.55
2022-12-14T11:36:28.350Z,19.67
2022-12-14T11:38:59.840Z,19.00
2022-12-14T11:41:32.812Z,20.33
2022-12-14T11:44:06.026Z,19.70
2022-12-14T11:46:50.991Z,19.92
2022-12-14T11:49:30.475Z,15.57
2022-12-14T11:52:14.452Z,21.33
2022-12-14T11:54:45.976Z,14.65
2022-12-14T11:57:21.844Z,20.60
2022-12-14T11:59:53.146Z,16.85
2022-12-14T12:02:23.269Z,22.60
2022-12-14T12:04:53.750Z,95.70
2022-12-14T12:07:29.741Z,20.48
2022-12-14T12:10:01.289Z,15.02
2022-12-14T12:12:28.605Z,20.52
2022-12-14T12:14:56.772Z,13.45
2022-12-14T12:17:39.492Z,15.23
2022-12-14T12:20:23.491Z,14.65
2022-12-14T12:22:52.701Z,18.65
2022-12-14T12:25:27.451Z,14.68
2022-12-14T12:28:01.202Z,13.20
2022-12-14T12:30:32.252Z,14.77
2022-12-14T12:33:06.519Z,14.48
2022-12-14T12:35:54.058Z,15.50
2022-12-14T12:38:30.628Z,16.73
2022-12-14T12:41:13.963Z,15.85
2022-12-14T12:43:49.855Z,14.15
2022-12-14T12:46:19.876Z,13.30
2022-12-14T12:48:51.286Z,14.45
2022-12-14T12:51:40.147Z,16.02
2022-12-14T12:54:09.447Z,17.55
2022-12-14T12:56:39.638Z,19.13
2022-12-14T12:59:07.640Z,13.75
2022-12-14T13:01:44.326Z,16.25
2022-12-14T13:04:33.702Z,17.40
2022-12-14T13:07:05.403Z,14.80
2022-12-14T13:09:36.298Z,11.10
2022-12-14T13:12:04.033Z,16.77
2022-12-14T13:14:34.112Z,17.27
2022-12-14T13:17:04.051Z,14.52
2022-12-14T13:19:50.321Z,13.75
2022-12-14T13:22:23.526Z,16.83
2022-12-14T13:24:57.069Z,16.63
2022-12-14T13:27:29.359Z,16.67
2022-12-14T13:30:06.848Z,16.75
2022-12-14T13:32:39.951Z,14.40
2022-12-14T13:35:26.265Z,19.23
2022-12-14T13:38:09.051Z,15.35
2022-12-14T13:43:23.839Z,18.13
2022-12-14T13:45:51.457Z,15.57
2022-12-14T13:48:26.833Z,17.27
2022-12-14T13:51:18.989Z,17.98
2022-12-14T13:53:50.201Z,15.73
2022-12-14T13:56:27.812Z,15.23
2022-12-14T13:59:00.370Z,15.73
2022-12-14T14:01:46.427Z,14.85
2022-12-14T14:04:14.243Z,18.08
2022-12-14T14:06:44.994Z,16.83
2022-12-14T14:09:24.691Z,15.15
2022-12-14T14:11:59.345Z,14.68
2022-12-14T14:14:34.798Z,15.13
2022-12-14T14:17:08.073Z,22.20
2022-12-14T14:19:40.681Z,22.17
2022-12-14T14:25:09.508Z,22.85
2022-12-14T14:27:42.205Z,20.85
2022-12-14T14:30:21.513Z,15.15
2022-12-14T14:32:49.102Z,18.80
2022-12-14T14:35:36.714Z,18.40
2022-12-14T14:38:08.094Z,16.17
2022-12-14T14:41:15.385Z,19.25
2022-12-14T14:43:38.428Z,19.38
2022-12-14T14:46:07.853Z,18.57
2022-12-14T14:48:54.172Z,24.17
2022-12-14T14:51:25.364Z,19.58
2022-12-14T14:54:20.625Z,22.45
2022-12-14T14:57:00.884Z,17.92
2022-12-14T14:59:29.551Z,17.40
2022-12-14T15:01:58.760Z,20.27
2022-12-14T15:04:29.341Z,20.85
2022-12-14T15:07:03.727Z,22.70
2022-12-14T15:09:33.180Z,19.80
2022-12-14T15:12:04.353Z,19.30
2022-12-14T15:14:43.288Z,19.77
2022-12-14T15:17:20.212Z,18.30
2022-12-14T15:19:54.496Z,19.45
2022-12-14T15:22:23.457Z,20.65
2022-12-14T15:24:53.197Z,22.10
2022-12-14T15:27:23.404Z,17.17
2022-12-14T15:29:51.496Z,24.55
2022-12-14T15:32:21.176Z,16.40
2022-12-14T15:34:59.344Z,19.88
2022-12-14T15:37:30.882Z,23.55
2022-12-14T15:40:02.703Z,23.55
2022-12-14T15:42:29.909Z,26.70
2022-12-14T15:44:57.986Z,24.88
2022-12-14T15:47:27.218Z,18.98
2022-12-14T15:50:00.531Z,23.75
2022-12-14T15:52:31.009Z,25.50
2022-12-14T15:54:59.235Z,22.58
2022-12-14T15:57:26.461Z,27.33
2022-12-14T15:59:55.700Z,26.10
2022-12-14T16:02:31.220Z,22.63
2022-12-14T16:05:02.999Z,25.45
2022-12-14T16:07:33.438Z,24.05
2022-12-14T16:10:02.426Z,23.27
2022-12-14T16:12:45.137Z,25.13
2022-12-14T16:15:33.109Z,20.70
2022-12-14T16:18:02.450Z,30.40
2022-12-14T16:20:34.687Z,23.00
2022-12-14T16:23:06.826Z,30.35
2022-12-14T16:25:35.869Z,23.77
2022-12-14T16:28:22.168Z,29.85
2022-12-14T16:30:53.416Z,28.42
2022-12-14T16:33:21.225Z,29.10
2022-12-14T16:35:58.372Z,27.40
2022-12-14T16:38:25.639Z,31.65
2022-12-14T16:40:57.691Z,24.17
2022-12-14T16:43:26.855Z,32.53
2022-12-14T16:46:06.580Z,34.03
2022-12-14T16:48:35.880Z,27.48
2022-12-14T16:51:37.882Z,29.92
2022-12-14T16:54:21.955Z,30.48
2022-12-14T16:56:50.341Z,27.70
2022-12-14T16:59:27.966Z,28.65
2022-12-14T17:01:55.394Z,28.65
2022-12-14T17:04:23.374Z,25.73
2022-12-14T17:06:54.486Z,26.90
2022-12-14T17:09:23.157Z,28.00
2022-12-14T17:11:51.605Z,30.65
2022-12-14T17:14:18.971Z,24.23
2022-12-14T17:16:47.051Z,27.13
2022-12-14T17:19:23.270Z,26.55
2022-12-14T17:21:51.494Z,28.83
2022-12-14T17:24:19.952Z,24.92
2022-12-14T17:26:47.915Z,27.00
2022-12-14T17:29:23.601Z,26.70
2022-12-14T17:31:52.314Z,31.08
2022-12-14T17:34:19.789Z,21.48
2022-12-14T17:36:47.103Z,28.77
2022-12-14T17:39:14.470Z,26.05
2022-12-14T17:41:45.780Z,23.80
2022-12-14T17:44:17.131Z,23.60
2022-12-14T17:46:45.313Z,42.53
2022-12-14T17:49:13.773Z,49.33
2022-12-14T17:51:42.278Z,49.58
2022-12-14T17:54:21.521Z,44.55
2022-12-14T17:56:51.954Z,39.75
2022-12-14T17:59:19.139Z,68.85
2022-12-14T18:01:46.433Z,62.55
2022-12-14T18:04:16.737Z,33.88
2022-12-14T18:06:44.519Z,51.40
2022-12-14T18:09:12.431Z,31.58
2022-12-14T18:11:54.457Z,23.58
2022-12-14T18:14:26.864Z,29.02
2022-12-14T18:16:55.639Z,29.45
2022-12-14T18:19:22.801Z,28.75
2022-12-14T18:21:50.007Z,30.05
2022-12-14T18:24:22.675Z,25.75
2022-12-14T18:26:52.890Z,22.52
2022-12-14T18:29:20.671Z,22.48
2022-12-14T18:31:49.839Z,29.67
2022-12-14T18:34:17.314Z,33.05
2022-12-14T18:36:44.839Z,29.55
2022-12-14T18:39:12.104Z,31.40
2022-12-14T18:41:39.301Z,26.27
2022-12-14T18:44:06.558Z,29.40
2022-12-14T18:46:33.885Z,27.02
2022-12-14T18:49:01.141Z,37.97
2022-12-14T18:51:28.374Z,37.00
2022-12-14T18:53:56.484Z,28.02
2022-12-14T18:56:25.352Z,27.65
2022-12-14T18:58:52.863Z,27.42
2022-12-14T19:01:21.586Z,26.02
2022-12-14T19:03:49.366Z,34.05
2022-12-14T19:06:43.522Z,37.88
2022-12-14T19:09:05.383Z,29.42
2022-12-14T19:11:33.879Z,25.27
2022-12-14T19:14:01.639Z,27.67
2022-12-14T19:16:29.414Z,28.38
2022-12-14T19:18:57.001Z,30.48
2022-12-14T19:21:26.219Z,25.70
2022-12-14T19:23:53.443Z,27.20
2022-12-14T19:26:21.142Z,22.80
2022-12-14T19:28:48.833Z,27.30
2022-12-14T19:31:16.182Z,29.85
2022-12-14T19:33:43.444Z,28.48
2022-12-14T19:36:11.199Z,29.90
2022-12-14T19:38:38.427Z,25.83
2022-12-14T19:41:07.360Z,28.90
2022-12-14T19:43:35.266Z,27.77
2022-12-14T19:46:07.031Z,36.15
2022-12-14T19:48:34.644Z,31.33
2022-12-14T19:51:05.835Z,30.05
2022-12-14T19:53:33.790Z,27.42
2022-12-14T19:56:01.420Z,30.58
2022-12-14T19:58:29.139Z,30.77
2022-12-14T20:00:56.338Z,30.00
2022-12-14T20:03:23.988Z,39.08
2022-12-14T20:05:52.508Z,37.97
2022-12-14T20:08:19.997Z,31.80
2022-12-14T20:10:47.543Z,29.88
2022-12-14T20:13:14.815Z,34.10
2022-12-14T20:15:48.211Z,29.83
2022-12-14T20:18:15.434Z,35.03
2022-12-14T20:20:42.611Z,37.42
2022-12-14T20:23:09.912Z,30.83
2022-12-14T20:25:37.126Z,33.15
2022-12-14T20:28:04.652Z,33.92
2022-12-14T20:30:32.176Z,36.22
2022-12-14T20:32:59.366Z,34.63
2022-12-14T20:35:26.574Z,35.85
2022-12-14T20:37:54.086Z,30.98
2022-12-14T20:40:21.258Z,34.42
2022-12-14T20:42:48.658Z,33.10
2022-12-14T20:45:15.878Z,29.42
2022-12-14T20:47:43.078Z,41.42
2022-12-14T20:50:10.294Z,38.05
2022-12-14T20:52:38.307Z,33.28
2022-12-14T20:55:05.837Z,31.25
2022-12-14T20:57:33.300Z,35.30
2022-12-14T21:00:00.624Z,36.08
2022-12-14T21:02:28.067Z,33.35
2022-12-14T21:04:55.460Z,25.02
2022-12-14T21:07:26.107Z,32.90
2022-12-14T21:09:53.745Z,31.63
2022-12-14T21:12:21.558Z,34.15
2022-12-14T21:14:53.096Z,35.83
2022-12-14T21:17:21.484Z,34.10
2022-12-14T21:19:48.681Z,31.98
2022-12-14T21:22:20.383Z,37.47
2022-12-14T21:25:04.773Z,27.98
2022-12-14T21:27:33.187Z,37.05
2022-12-14T21:30:00.862Z,29.65
2022-12-14T21:32:28.257Z,33.22
2022-12-14T21:34:55.631Z,31.08
2022-12-14T21:37:23.518Z,25.30
2022-12-14T21:39:54.090Z,33.00
2022-12-14T21:42:23.336Z,24.52
2022-12-14T21:44:51.476Z,26.92
2022-12-14T21:47:18.650Z,29.00
2022-12-14T21:49:46.603Z,30.85
2022-12-14T21:52:15.151Z,29.63
2022-12-14T21:54:42.723Z,30.83
2022-12-14T21:57:35.489Z,30.65
2022-12-14T22:00:02.743Z,38.67
2022-12-14T22:02:30.231Z,39.65
2022-12-14T22:04:57.559Z,33.00
2022-12-14T22:07:26.643Z,28.48
2022-12-14T22:09:53.880Z,27.00
2022-12-14T22:12:21.113Z,28.40
2022-12-14T22:14:49.140Z,21.35
2022-12-14T22:17:16.374Z,28.45
2022-12-14T22:19:43.570Z,27.38
2022-12-14T22:22:14.350Z,25.38
2022-12-14T22:24:41.607Z,26.25
2022-12-14T22:27:09.684Z,24.45
2022-12-14T22:29:36.958Z,24.73
2022-12-14T22:32:04.285Z,28.75
2022-12-14T22:34:31.557Z,23.40
2022-12-14T22:36:58.767Z,25.30
2022-12-14T22:39:25.956Z,24.05
2022-12-14T22:41:53.211Z,26.88
2022-12-14T22:44:20.445Z,24.25
2022-12-14T22:46:47.614Z,25.33
2022-12-14T22:49:19.072Z,24.52
2022-12-14T22:51:46.512Z,27.90
2022-12-14T22:54:18.517Z,24.00
2022-12-14T22:56:47.758Z,26.63
2022-12-14T22:59:27.577Z,28.58
2022-12-14T23:01:54.988Z,21.55
2022-12-14T23:04:22.385Z,19.63
2022-12-14T23:06:49.774Z,26.35
2022-12-14T23:09:35.769Z,24.60
2022-12-14T23:12:22.225Z,23.70
2022-12-14T23:15:08.677Z,20.08
2022-12-14T23:17:55.141Z,18.77
2022-12-14T23:20:40.845Z,21.35
2022-12-14T23:23:27.914Z,25.70
2022-12-14T23:26:14.163Z,20.63
2022-12-14T23:28:59.893Z,20.88
2022-12-14T23:31:45.947Z,24.00
2022-12-14T23:34:32.060Z,22.92
2022-12-14T23:37:20.523Z,28.23
2022-12-14T23:40:07.451Z,24.30
2022-12-14T23:42:53.398Z,24.48
2022-12-14T23:45:39.097Z,23.05
2022-12-14T23:48:25.358Z,24.15
2022-12-14T23:51:11.194Z,17.77
2022-12-14T23:53:57.434Z,25.10
2022-12-14T23:56:43.441Z,17.17
2022-12-14T23:59:32.445Z,28.30
